Time;durP1;ratioP1;P1;durP2;ratioP2;P2;SDS_P1;SDS_P2;PMS_P1;PMS_P2;Temp;Humidity;BMP_temperature;BMP_pressure;BME280_temperature;BME280_humidity;BME280_pressure;Samples;Min_cycle;Max_cycle;Signal;HPM_P1;HPM_P2
2022/10/16 00:00:31;;;;;;;7.07;2.35;;;13.60;99.90;;;;;;5014014;28;20411;-59
2022/10/16 00:02:56;;;;;;;3.42;2.60;;;13.60;99.90;;;;;;5020911;28;20032;-57
2022/10/16 00:05:22;;;;;;;2.35;2.08;;;13.60;99.90;;;;;;5014385;28;20639;-57
2022/10/16 00:07:47;;;;;;;7.57;3.08;;;13.60;99.90;;;;;;5009974;28;20415;-55
2022/10/16 00:10:13;;;;;;;3.92;2.30;;;13.60;99.90;;;;;;5007663;28;20025;-57
2022/10/16 00:12:39;;;;;;;3.83;2.42;;;13.70;99.90;;;;;;5013953;28;20459;-55
2022/10/16 00:15:05;;;;;;;11.57;2.65;;;13.70;99.90;;;;;;5010957;28;20408;-55
2022/10/16 00:17:31;;;;;;;16.48;3.13;;;13.60;99.90;;;;;;5010850;28;20101;-53
2022/10/16 00:19:57;;;;;;;9.52;2.17;;;13.60;99.90;;;;;;5008204;28;20458;-58
2022/10/16 00:22:23;;;;;;;5.25;2.55;;;13.60;99.90;;;;;;5008206;28;20034;-56
2022/10/16 00:24:49;;;;;;;8.40;2.33;;;13.60;99.90;;;;;;5009184;28;20073;-55
2022/10/16 00:27:14;;;;;;;7.63;2.55;;;13.50;99.90;;;;;;5014619;28;20103;-56
2022/10/16 00:29:40;;;;;;;6.32;2.45;;;13.60;99.90;;;;;;5012911;28;20034;-54
2022/10/16 00:32:05;;;;;;;5.97;2.63;;;13.50;99.90;;;;;;5009391;28;20041;-55
2022/10/16 00:34:31;;;;;;;6.97;2.60;;;13.50;99.90;;;;;;5011636;28;20033;-58
2022/10/16 00:36:56;;;;;;;6.18;2.05;;;13.50;99.90;;;;;;5007906;28;20033;-56
2022/10/16 00:39:23;;;;;;;6.18;1.88;;;13.50;99.90;;;;;;5009625;28;20026;-54
2022/10/16 00:41:49;;;;;;;7.07;2.35;;;13.40;99.90;;;;;;5005948;28;20574;-57
2022/10/16 00:44:52;;;;;;;4.50;2.00;;;13.40;99.90;;;;;;5007112;28;20034;-55
2022/10/16 00:47:31;;;;;;;11.48;2.58;;;13.40;99.90;;;;;;5010450;28;20029;-56
2022/10/16 00:50:13;;;;;;;3.47;1.92;;;13.30;99.90;;;;;;5005344;28;20033;-58
2022/10/16 00:52:44;;;;;;;3.90;1.60;;;13.30;99.90;;;;;;5009079;28;20080;-54
2022/10/16 00:55:10;;;;;;;2.78;1.65;;;13.20;99.90;;;;;;5009983;28;20022;-57
2022/10/16 00:57:36;;;;;;;2.80;1.52;;;13.20;99.90;;;;;;5012514;28;20088;-55
2022/10/16 01:00:05;;;;;;;3.92;1.85;;;13.20;99.90;;;;;;5008227;28;20030;-57
2022/10/16 01:02:30;;;;;;;11.13;2.17;;;13.20;99.90;;;;;;5009405;28;20034;-56
2022/10/16 01:04:56;;;;;;;6.85;1.60;;;13.10;99.90;;;;;;5015526;28;20399;-57
2022/10/16 01:07:54;;;;;;;8.27;1.88;;;13.10;99.90;;;;;;5009787;28;20087;-56
2022/10/16 01:10:40;;;;;;;5.45;1.42;;;13.10;99.90;;;;;;5006466;28;20487;-54
2022/10/16 01:13:21;;;;;;;3.78;1.75;;;13.10;99.90;;;;;;5010360;28;20228;-58
2022/10/16 01:16:02;;;;;;;6.35;1.80;;;13.00;99.90;;;;;;5007967;28;20050;-56
2022/10/16 01:18:35;;;;;;;3.28;1.60;;;13.00;99.90;;;;;;5009954;28;20034;-57
2022/10/16 01:21:04;;;;;;;6.85;1.48;;;12.90;99.90;;;;;;5011594;28;20044;-54
2022/10/16 01:24:01;;;;;;;1.73;1.63;;;12.90;99.90;;;;;;5020370;28;20029;-59
2022/10/16 01:26:36;;;;;;;5.00;2.00;;;12.80;99.90;;;;;;5007102;28;20554;-55
2022/10/16 01:29:31;;;;;;;4.55;1.35;;;12.80;99.90;;;;;;5009502;28;20391;-54
2022/10/16 01:32:01;;;;;;;3.75;1.92;;;12.80;99.90;;;;;;5006542;28;20066;-55
2022/10/16 01:34:41;;;;;;;8.32;1.80;;;12.90;99.90;;;;;;5001183;28;20362;-57
2022/10/16 01:37:15;;;;;;;5.72;1.58;;;12.80;99.90;;;;;;5016885;28;20493;-54
2022/10/16 01:39:45;;;;;;;12.68;2.15;;;12.70;99.90;;;;;;5010615;28;20029;-58
2022/10/16 01:42:22;;;;;;;14.50;2.25;;;12.70;99.90;;;;;;5011694;28;20029;-56
2022/10/16 01:44:50;;;;;;;2.58;1.58;;;12.70;99.90;;;;;;5010521;28;20136;-54
2022/10/16 01:47:18;;;;;;;5.88;1.83;;;12.70;99.90;;;;;;5008157;28;20026;-55
2022/10/16 01:49:45;;;;;;;2.28;1.83;;;12.70;99.90;;;;;;5006058;28;20404;-55
2022/10/16 01:52:17;;;;;;;5.85;1.90;;;12.70;99.90;;;;;;4997721;28;20101;-59
2022/10/16 01:54:45;;;;;;;5.45;1.77;;;12.60;99.90;;;;;;5009179;28;20026;-54
2022/10/16 01:57:13;;;;;;;12.23;1.75;;;12.60;99.90;;;;;;5014330;28;20030;-60
2022/10/16 01:59:44;;;;;;;22.70;2.25;;;12.60;99.90;;;;;;5006965;28;20026;-57
2022/10/16 02:02:12;;;;;;;9.63;2.10;;;12.60;99.90;;;;;;5005794;28;20073;-57
2022/10/16 02:04:42;;;;;;;2.28;1.88;;;12.60;99.90;;;;;;5008781;28;20125;-57
2022/10/16 02:07:08;;;;;;;5.03;2.08;;;12.60;99.90;;;;;;5009517;28;20026;-57
2022/10/16 02:09:35;;;;;;;5.13;1.80;;;12.70;99.90;;;;;;5007502;28;20029;-58
2022/10/16 02:12:08;;;;;;;5.88;2.13;;;12.70;99.90;;;;;;5008426;28;20109;-58
2022/10/16 02:14:33;;;;;;;4.85;2.20;;;12.70;99.90;;;;;;5005712;28;20022;-58
2022/10/16 02:16:59;;;;;;;3.17;1.92;;;12.70;99.90;;;;;;5013462;28;20029;-54
2022/10/16 02:19:24;;;;;;;5.13;1.73;;;12.70;99.90;;;;;;5008622;28;20030;-56
2022/10/16 02:21:57;;;;;;;3.05;1.85;;;12.80;99.90;;;;;;5016811;28;20029;-59
2022/10/16 02:24:29;;;;;;;5.63;1.63;;;12.80;99.90;;;;;;5010080;28;20058;-58
2022/10/16 02:27:23;;;;;;;5.10;2.25;;;12.80;99.90;;;;;;5012491;28;20511;-58
2022/10/16 02:29:53;;;;;;;5.55;1.77;;;12.80;99.90;;;;;;4999852;28;20114;-58
2022/10/16 02:32:22;;;;;;;9.98;2.42;;;12.90;99.90;;;;;;5005598;28;20084;-58
2022/10/16 02:34:49;;;;;;;1.70;1.52;;;12.90;99.90;;;;;;5010722;28;20467;-58
2022/10/16 02:37:17;;;;;;;16.25;2.03;;;12.90;99.90;;;;;;5007902;28;20030;-58
2022/10/16 02:39:43;;;;;;;4.47;1.45;;;12.90;99.90;;;;;;5008966;28;20148;-58
2022/10/16 02:42:12;;;;;;;3.67;1.63;;;12.90;99.90;;;;;;5004638;28;20022;-58
2022/10/16 02:44:38;;;;;;;5.05;1.63;;;12.90;99.90;;;;;;5009754;28;20018;-58
2022/10/16 02:47:03;;;;;;;7.88;1.70;;;12.90;99.90;;;;;;5005576;28;20049;-58
2022/10/16 02:49:29;;;;;;;3.28;1.75;;;13.00;99.90;;;;;;5011928;28;20026;-58
2022/10/16 02:51:54;;;;;;;2.67;1.70;;;13.00;99.90;;;;;;5014761;28;20091;-58
2022/10/16 02:54:20;;;;;;;3.25;1.90;;;13.00;99.90;;;;;;5006772;28;20041;-60
2022/10/16 02:56:45;;;;;;;3.30;1.55;;;13.00;99.90;;;;;;5011359;28;20444;-57
2022/10/16 02:59:11;;;;;;;5.72;1.90;;;13.00;99.90;;;;;;5011651;28;20037;-58
2022/10/16 03:01:36;;;;;;;3.38;2.10;;;13.00;99.90;;;;;;5005832;28;20042;-59
2022/10/16 03:04:02;;;;;;;6.50;1.90;;;13.00;99.90;;;;;;5011201;28;20029;-60
2022/10/16 03:06:28;;;;;;;4.30;2.13;;;13.00;99.90;;;;;;5014704;28;20434;-58
2022/10/16 03:08:53;;;;;;;4.18;1.50;;;13.00;99.90;;;;;;5007584;28;20138;-61
2022/10/16 03:11:19;;;;;;;8.18;1.85;;;13.00;99.90;;;;;;5009060;28;20816;-61
2022/10/16 03:13:44;;;;;;;3.08;1.80;;;13.00;99.90;;;;;;5012445;28;20034;-61
2022/10/16 03:16:10;;;;;;;9.55;1.60;;;13.00;99.90;;;;;;5010229;28;20812;-60
2022/10/16 03:18:35;;;;;;;7.55;1.58;;;12.90;99.90;;;;;;5015364;28;20396;-61
2022/10/16 03:21:01;;;;;;;2.38;1.48;;;12.90;99.90;;;;;;5010050;28;20037;-60
2022/10/16 03:23:27;;;;;;;4.20;1.83;;;12.90;99.90;;;;;;5011883;28;20104;-58
2022/10/16 03:25:53;;;;;;;2.70;1.48;;;12.90;99.90;;;;;;5009920;28;20029;-59
2022/10/16 03:28:19;;;;;;;6.95;2.08;;;12.90;99.90;;;;;;5011629;28;20026;-59
2022/10/16 03:30:44;;;;;;;8.88;1.42;;;12.80;99.90;;;;;;5007693;28;20542;-60
2022/10/16 03:33:10;;;;;;;8.35;1.67;;;12.80;99.90;;;;;;5015856;28;20167;-61
2022/10/16 03:35:35;;;;;;;4.85;1.77;;;12.80;99.90;;;;;;5015492;28;20026;-61
2022/10/16 03:38:01;;;;;;;7.20;1.63;;;12.80;99.90;;;;;;5022148;28;20021;-60
2022/10/16 03:40:27;;;;;;;9.68;1.50;;;12.80;99.90;;;;;;5006181;28;20497;-61
2022/10/16 03:42:55;;;;;;;5.93;1.65;;;12.70;99.90;;;;;;5008623;28;20037;-60
2022/10/16 03:45:20;;;;;;;17.85;1.92;;;12.70;99.90;;;;;;5005897;28;20026;-61
2022/10/16 03:47:47;;;;;;;13.13;1.50;;;12.70;99.90;;;;;;5003321;28;20037;-60
2022/10/16 03:50:12;;;;;;;3.72;1.80;;;12.70;99.90;;;;;;5015598;28;20029;-60
2022/10/16 03:52:38;;;;;;;9.70;1.40;;;12.80;99.90;;;;;;5013172;28;20037;-61
2022/10/16 03:55:04;;;;;;;13.30;1.40;;;12.80;99.90;;;;;;5011412;28;20037;-61
2022/10/16 03:57:29;;;;;;;3.60;1.30;;;12.70;99.90;;;;;;5010730;28;20153;-59
2022/10/16 03:59:55;;;;;;;5.00;1.42;;;12.80;99.90;;;;;;5008558;28;20053;-61
2022/10/16 04:02:20;;;;;;;6.15;1.30;;;12.80;99.90;;;;;;5009778;28;20041;-61
2022/10/16 04:04:46;;;;;;;4.63;1.33;;;12.80;99.90;;;;;;5012473;28;20124;-61
2022/10/16 04:07:11;;;;;;;12.52;1.83;;;12.80;99.90;;;;;;5011989;28;20051;-61
2022/10/16 04:09:37;;;;;;;3.55;1.25;;;12.80;99.90;;;;;;5010600;28;20159;-61
2022/10/16 04:12:03;;;;;;;2.90;1.52;;;12.90;99.90;;;;;;5019855;28;20055;-60
2022/10/16 04:14:28;;;;;;;6.13;1.70;;;12.90;99.90;;;;;;5010975;28;20038;-61
2022/10/16 04:16:54;;;;;;;5.95;1.27;;;13.00;99.90;;;;;;5011661;28;20495;-61
2022/10/16 04:19:19;;;;;;;7.47;1.23;;;13.00;99.90;;;;;;5009822;28;20180;-61
2022/10/16 04:21:45;;;;;;;7.95;1.35;;;13.00;99.90;;;;;;5010153;28;20042;-61
2022/10/16 04:24:11;;;;;;;2.97;1.50;;;13.00;99.90;;;;;;5010214;28;20033;-60
2022/10/16 04:26:37;;;;;;;2.75;1.30;;;13.00;99.90;;;;;;5013126;28;20033;-61
2022/10/16 04:29:02;;;;;;;4.20;1.27;;;13.00;99.90;;;;;;5011090;28;20030;-61
2022/10/16 04:31:28;;;;;;;6.22;1.20;;;13.00;99.90;;;;;;5007390;28;20108;-59
2022/10/16 04:33:53;;;;;;;5.63;1.23;;;13.00;99.90;;;;;;5011983;28;20098;-60
2022/10/16 04:36:19;;;;;;;4.30;1.10;;;13.00;99.90;;;;;;5010200;28;20028;-59
2022/10/16 04:38:44;;;;;;;5.32;1.20;;;13.00;99.90;;;;;;5009165;28;20535;-59
2022/10/16 04:41:10;;;;;;;2.88;1.65;;;13.00;99.90;;;;;;5006893;28;20117;-60
2022/10/16 04:43:35;;;;;;;1.33;1.20;;;13.00;99.90;;;;;;5011900;28;20030;-61
2022/10/16 04:46:01;;;;;;;1.33;1.10;;;13.00;99.90;;;;;;5016472;28;20101;-60
2022/10/16 04:48:27;;;;;;;2.25;1.20;;;13.00;99.90;;;;;;5015117;28;20108;-60
2022/10/16 04:50:52;;;;;;;3.13;1.27;;;13.00;99.90;;;;;;5004363;28;20506;-59
2022/10/16 04:53:18;;;;;;;2.22;1.10;;;13.00;99.90;;;;;;5001072;28;20063;-61
2022/10/16 04:55:43;;;;;;;8.60;1.20;;;13.00;99.90;;;;;;5001016;28;20029;-61
2022/10/16 04:58:09;;;;;;;3.25;0.90;;;12.90;99.90;;;;;;5010559;28;20030;-60
2022/10/16 05:00:35;;;;;;;3.90;1.10;;;12.90;99.90;;;;;;5008634;28;20037;-60
2022/10/16 05:03:01;;;;;;;4.97;1.23;;;12.90;99.90;;;;;;5019286;28;20033;-59
2022/10/16 05:05:27;;;;;;;4.55;1.20;;;13.00;99.90;;;;;;5009296;28;20033;-60
2022/10/16 05:07:53;;;;;;;4.15;1.10;;;13.00;99.90;;;;;;5008800;28;20042;-61
2022/10/16 05:10:19;;;;;;;3.63;1.30;;;13.00;99.90;;;;;;5007257;28;20096;-58
2022/10/16 05:12:46;;;;;;;6.82;1.40;;;13.00;99.90;;;;;;5007221;28;20025;-60
2022/10/16 05:15:12;;;;;;;8.63;1.52;;;13.00;99.90;;;;;;5006584;28;20033;-60
2022/10/16 05:17:37;;;;;;;2.15;1.00;;;13.00;99.90;;;;;;5010032;28;20960;-61
2022/10/16 05:20:03;;;;;;;3.67;1.05;;;13.00;99.90;;;;;;5008094;28;20037;-61
2022/10/16 05:22:29;;;;;;;1.13;1.05;;;13.00;99.90;;;;;;5010819;28;20029;-61
2022/10/16 05:24:55;;;;;;;4.13;1.20;;;13.00;99.90;;;;;;5008510;28;20042;-61
2022/10/16 05:27:20;;;;;;;2.38;1.60;;;13.10;99.90;;;;;;5009658;28;20038;-60
2022/10/16 05:29:47;;;;;;;1.00;1.00;;;13.10;99.90;;;;;;5009096;28;20029;-61
2022/10/16 05:32:15;;;;;;;3.13;1.05;;;13.00;99.90;;;;;;5000430;28;20026;-61
2022/10/16 05:34:40;;;;;;;8.43;1.30;;;13.10;99.90;;;;;;5013237;28;20076;-61
2022/10/16 05:37:06;;;;;;;6.90;1.65;;;13.10;99.90;;;;;;5008928;28;20022;-61
2022/10/16 05:39:32;;;;;;;5.10;1.20;;;13.10;99.90;;;;;;5007256;28;20026;-61
2022/10/16 05:41:57;;;;;;;6.78;1.63;;;13.20;99.90;;;;;;5006593;28;20025;-61
2022/10/16 05:44:23;;;;;;;2.15;1.27;;;13.10;99.90;;;;;;5008817;28;20040;-61
2022/10/16 05:46:49;;;;;;;2.90;1.23;;;13.10;99.90;;;;;;5007757;28;20492;-61
2022/10/16 05:49:14;;;;;;;12.23;1.40;;;13.10;99.90;;;;;;5008361;28;20072;-61
2022/10/16 05:51:41;;;;;;;2.45;1.13;;;13.00;99.90;;;;;;5006766;28;20038;-62
2022/10/16 05:54:06;;;;;;;4.50;1.30;;;12.90;99.90;;;;;;5006529;28;20022;-61
2022/10/16 05:56:32;;;;;;;3.25;1.30;;;12.90;99.90;;;;;;5011999;28;20037;-61
2022/10/16 05:58:57;;;;;;;3.38;1.48;;;12.90;99.90;;;;;;5003584;28;20934;-61
2022/10/16 06:01:24;;;;;;;10.20;1.42;;;12.80;99.90;;;;;;5005829;28;20489;-60
2022/10/16 06:03:51;;;;;;;6.07;1.30;;;12.80;99.90;;;;;;5010216;28;20484;-60
2022/10/16 06:06:20;;;;;;;1.52;1.20;;;12.80;99.90;;;;;;5003495;28;20038;-60
2022/10/16 06:08:47;;;;;;;1.75;1.15;;;12.70;99.90;;;;;;5006698;28;20028;-59
2022/10/16 06:11:18;;;;;;;1.85;1.35;;;12.80;99.90;;;;;;5007021;28;20034;-61
2022/10/16 06:13:45;;;;;;;1.55;1.35;;;12.70;99.90;;;;;;5008606;28;20492;-61
2022/10/16 06:16:12;;;;;;;2.28;1.20;;;12.70;99.90;;;;;;5006328;28;20084;-60
2022/10/16 06:18:38;;;;;;;1.75;1.50;;;12.60;99.90;;;;;;5007513;28;20034;-61
2022/10/16 06:21:13;;;;;;;3.03;1.77;;;12.60;99.90;;;;;;5005071;28;20117;-64
2022/10/16 06:23:39;;;;;;;1.67;1.45;;;12.50;99.90;;;;;;5003876;28;20083;-60
2022/10/16 06:26:06;;;;;;;6.15;1.60;;;12.60;99.90;;;;;;5007705;28;20117;-59
2022/10/16 06:28:32;;;;;;;2.05;1.50;;;12.60;99.90;;;;;;5007333;28;20029;-58
2022/10/16 06:31:02;;;;;;;4.28;1.52;;;12.60;99.90;;;;;;5004773;28;20026;-61
2022/10/16 06:33:28;;;;;;;3.70;1.52;;;12.50;99.90;;;;;;5010487;28;20041;-61
2022/10/16 06:35:53;;;;;;;7.45;2.00;;;12.60;99.90;;;;;;5006540;28;20088;-62
2022/10/16 06:38:19;;;;;;;5.07;1.60;;;12.60;99.90;;;;;;5004998;28;20030;-60
2022/10/16 06:40:44;;;;;;;6.07;1.65;;;12.60;99.90;;;;;;5004184;28;20022;-61
2022/10/16 06:43:10;;;;;;;9.90;1.60;;;12.70;99.90;;;;;;5007529;28;20121;-60
2022/10/16 06:45:35;;;;;;;3.85;1.20;;;12.70;99.90;;;;;;5003959;28;20044;-61
2022/10/16 06:48:01;;;;;;;5.22;1.42;;;12.80;99.90;;;;;;5003004;28;20034;-60
2022/10/16 06:50:26;;;;;;;1.60;1.45;;;12.90;99.90;;;;;;5001732;28;20740;-58
2022/10/16 06:52:52;;;;;;;3.50;1.42;;;12.90;99.90;;;;;;5008050;28;20076;-59
2022/10/16 06:55:17;;;;;;;5.30;1.67;;;13.00;99.90;;;;;;5005404;28;20054;-60
2022/10/16 06:57:43;;;;;;;7.50;2.15;;;13.10;99.90;;;;;;5011410;28;20029;-59
2022/10/16 07:00:09;;;;;;;4.30;1.70;;;13.20;99.90;;;;;;5004031;28;20042;-61
2022/10/16 07:02:35;;;;;;;8.57;2.00;;;13.20;99.90;;;;;;5008774;28;20034;-60
2022/10/16 07:05:01;;;;;;;5.93;2.33;;;13.30;99.90;;;;;;5011671;28;20507;-61
2022/10/16 07:07:26;;;;;;;7.93;2.10;;;13.40;99.90;;;;;;5010925;28;20092;-60
2022/10/16 07:09:52;;;;;;;4.63;1.75;;;13.40;99.90;;;;;;5008498;28;20034;-59
2022/10/16 07:12:17;;;;;;;6.00;2.63;;;13.50;99.90;;;;;;5006824;28;21839;-61
2022/10/16 07:14:43;;;;;;;5.38;1.92;;;13.60;99.90;;;;;;5005696;28;20102;-64
2022/10/16 07:17:09;;;;;;;4.18;1.70;;;13.70;99.90;;;;;;5005022;28;20025;-63
2022/10/16 07:19:34;;;;;;;4.88;3.28;;;13.80;99.90;;;;;;5006985;28;20064;-64
2022/10/16 07:22:00;;;;;;;2.03;1.60;;;13.80;99.90;;;;;;5004018;28;20054;-64
2022/10/16 07:24:26;;;;;;;5.78;1.80;;;13.90;99.90;;;;;;5007214;28;20054;-64
2022/10/16 07:26:51;;;;;;;3.08;2.10;;;14.00;99.90;;;;;;5005385;28;20473;-65
2022/10/16 07:29:21;;;;;;;2.92;1.65;;;14.10;99.90;;;;;;5007010;28;20044;-64
2022/10/16 07:31:48;;;;;;;2.03;1.85;;;14.10;99.90;;;;;;5003827;28;21007;-64
2022/10/16 07:34:15;;;;;;;2.75;1.85;;;14.20;99.90;;;;;;5003774;28;20046;-64
2022/10/16 07:36:41;;;;;;;1.77;1.50;;;14.20;99.90;;;;;;5003132;28;20104;-64
2022/10/16 07:39:06;;;;;;;2.72;1.85;;;14.30;99.90;;;;;;5006676;28;20040;-63
2022/10/16 07:41:32;;;;;;;5.72;1.88;;;14.30;99.90;;;;;;5003171;28;20037;-64
2022/10/16 07:44:02;;;;;;;4.68;2.13;;;14.30;99.90;;;;;;5007225;28;20042;-65
2022/10/16 07:46:27;;;;;;;2.38;1.92;;;14.30;99.90;;;;;;5007551;28;20061;-65
2022/10/16 07:48:53;;;;;;;6.00;1.98;;;14.30;99.90;;;;;;5012490;28;20034;-65
2022/10/16 07:51:21;;;;;;;3.90;1.83;;;14.30;99.90;;;;;;5008076;28;20045;-63
2022/10/16 07:53:47;;;;;;;3.33;1.98;;;14.30;99.90;;;;;;5011144;28;20488;-64
2022/10/16 07:56:14;;;;;;;4.68;1.80;;;14.30;99.90;;;;;;5006959;28;20026;-64
2022/10/16 07:58:39;;;;;;;5.25;1.60;;;14.30;99.90;;;;;;5009474;28;20458;-64
2022/10/16 08:01:07;;;;;;;2.83;1.40;;;14.30;99.90;;;;;;5006639;28;20113;-65
2022/10/16 08:03:33;;;;;;;4.70;1.60;;;14.30;99.90;;;;;;5005467;28;20034;-64
2022/10/16 08:05:59;;;;;;;2.15;1.40;;;14.30;99.90;;;;;;5005154;28;20080;-63
2022/10/16 08:08:26;;;;;;;4.32;1.73;;;14.30;99.90;;;;;;5010807;28;20040;-63
2022/10/16 08:10:52;;;;;;;4.20;1.95;;;14.40;99.90;;;;;;5006556;28;20026;-64
2022/10/16 08:13:17;;;;;;;5.03;1.50;;;14.40;99.90;;;;;;5004576;28;20026;-65
2022/10/16 08:15:44;;;;;;;2.58;1.25;;;14.50;99.90;;;;;;4995642;28;20037;-65
2022/10/16 08:18:11;;;;;;;3.80;1.67;;;14.60;99.90;;;;;;5008032;28;20021;-65
2022/10/16 08:20:37;;;;;;;2.40;1.30;;;14.70;99.90;;;;;;5007449;28;20121;-63
2022/10/16 08:23:02;;;;;;;2.22;1.50;;;14.80;99.90;;;;;;5007260;28;21975;-65
2022/10/16 08:25:29;;;;;;;1.58;1.33;;;14.90;99.90;;;;;;5009466;28;20040;-64
2022/10/16 08:27:54;;;;;;;1.85;1.10;;;15.10;99.90;;;;;;5014384;28;20036;-64
2022/10/16 08:30:21;;;;;;;3.35;1.10;;;15.10;99.90;;;;;;5003685;28;20033;-65
2022/10/16 08:32:47;;;;;;;2.85;1.58;;;15.20;99.90;;;;;;5010052;28;20038;-63
2022/10/16 08:35:13;;;;;;;8.48;1.27;;;15.30;99.90;;;;;;5004225;28;20041;-63
2022/10/16 08:37:39;;;;;;;4.70;1.20;;;15.30;99.90;;;;;;5003934;28;20026;-64
2022/10/16 08:40:11;;;;;;;6.90;1.63;;;15.40;99.90;;;;;;5004830;28;20026;-63
2022/10/16 08:43:02;;;;;;;1.08;0.98;;;15.60;99.90;;;;;;5005328;28;20030;-64
2022/10/16 08:45:49;;;;;;;2.00;1.20;;;15.70;99.90;;;;;;5009032;28;20026;-63
2022/10/16 08:48:22;;;;;;;1.30;0.90;;;15.80;99.90;;;;;;5016107;28;20113;-64
2022/10/16 08:50:50;;;;;;;1.92;0.70;;;15.90;99.90;;;;;;5013485;28;20029;-63
2022/10/16 08:53:23;;;;;;;1.23;1.00;;;16.00;99.90;;;;;;5009232;28;20041;-64
2022/10/16 08:55:51;;;;;;;7.30;0.95;;;16.20;99.90;;;;;;5001379;28;20080;-63
2022/10/16 08:58:19;;;;;;;1.95;0.73;;;16.30;99.90;;;;;;5012597;28;20056;-64
2022/10/16 09:00:54;;;;;;;2.38;0.60;;;16.40;99.90;;;;;;5008868;28;20435;-63
2022/10/16 09:03:29;;;;;;;1.73;0.88;;;16.40;99.90;;;;;;5004867;28;20041;-63
2022/10/16 09:06:00;;;;;;;3.75;0.95;;;16.50;99.90;;;;;;5007583;28;20040;-64
2022/10/16 09:08:42;;;;;;;6.15;0.85;;;16.60;99.90;;;;;;5004219;28;20034;-64
2022/10/16 09:11:31;;;;;;;8.07;0.98;;;16.70;99.90;;;;;;5005667;28;20058;-63
2022/10/16 09:14:22;;;;;;;1.55;1.00;;;16.80;99.90;;;;;;5008965;28;20033;-63
2022/10/16 09:17:03;;;;;;;1.17;0.73;;;16.90;99.90;;;;;;5003026;28;20476;-63
2022/10/16 09:19:37;;;;;;;2.45;0.75;;;17.00;99.90;;;;;;5008455;28;20061;-63
2022/10/16 09:22:13;;;;;;;3.17;1.10;;;17.10;99.90;;;;;;5006867;28;20058;-64
2022/10/16 09:24:39;;;;;;;0.68;0.50;;;17.20;99.90;;;;;;5007298;28;20092;-64
2022/10/16 09:27:07;;;;;;;4.57;0.50;;;17.30;99.90;;;;;;5007173;28;20033;-63
2022/10/16 09:29:32;;;;;;;4.72;0.70;;;17.40;99.90;;;;;;5010284;28;20039;-63
2022/10/16 09:32:12;;;;;;;2.28;0.70;;;17.50;99.90;;;;;;5030556;23;20021;-60
2022/10/16 09:34:42;;;;;;;1.60;0.55;;;17.60;99.90;;;;;;5027534;28;20033;-57
2022/10/16 09:37:16;;;;;;;0.30;0.30;;;17.60;99.90;;;;;;5030082;28;20116;-58
2022/10/16 09:39:50;;;;;;;1.60;0.60;;;17.70;99.90;;;;;;5026391;28;20309;-58
2022/10/16 09:42:18;;;;;;;;;;;17.80;99.90;;;;;;5025279;28;20111;-59
2022/10/16 09:44:48;;;;;;;4.25;0.50;;;18.00;99.90;;;;;;5031150;28;19916;-60
2022/10/16 09:47:17;;;;;;;0.40;0.38;;;18.10;99.90;;;;;;5030416;28;20169;-56
2022/10/16 09:49:55;;;;;;;1.42;0.52;;;18.20;99.90;;;;;;5036935;28;20060;-58
2022/10/16 09:52:21;;;;;;;6.10;0.63;;;18.20;99.90;;;;;;5032451;28;20029;-58
2022/10/16 09:54:58;;;;;;;4.50;0.73;;;18.20;99.90;;;;;;5024701;28;20025;-55
2022/10/16 09:57:24;;;;;;;1.05;0.55;;;18.20;99.90;;;;;;5031302;28;20029;-59
2022/10/16 09:59:55;;;;;;;2.28;0.50;;;18.30;99.90;;;;;;5032014;28;20037;-58
2022/10/16 10:02:27;;;;;;;2.15;0.63;;;18.30;99.90;;;;;;5026765;28;20025;-56
2022/10/16 10:04:54;;;;;;;4.10;0.30;;;18.40;99.90;;;;;;5030805;28;20442;-56
2022/10/16 10:07:34;;;;;;;0.52;0.40;;;18.40;99.90;;;;;;5030652;28;20033;-59
2022/10/16 10:10:01;;;;;;;1.13;0.40;;;18.40;99.90;;;;;;5028527;28;20026;-58
2022/10/16 10:12:33;;;;;;;1.90;0.40;;;18.40;99.90;;;;;;5028234;28;20056;-59
2022/10/16 10:15:05;;;;;;;2.30;0.40;;;18.40;99.90;;;;;;5026974;28;20495;-57
2022/10/16 10:17:31;;;;;;;4.43;0.52;;;18.40;99.90;;;;;;5024748;28;20032;-58
2022/10/16 10:20:15;;;;;;;1.27;0.40;;;18.40;99.90;;;;;;5035261;28;20021;-60
2022/10/16 10:22:45;;;;;;;0.77;0.30;;;18.50;99.90;;;;;;5029789;28;20079;-59
2022/10/16 10:25:11;;;;;;;0.90;0.40;;;18.60;99.90;;;;;;5027693;28;20037;-58
2022/10/16 10:27:39;;;;;;;0.82;0.50;;;18.80;99.90;;;;;;5029557;28;20022;-57
2022/10/16 10:30:17;;;;;;;1.80;0.40;;;19.00;99.90;;;;;;5026716;28;20112;-58
2022/10/16 10:33:11;;;;;;;2.45;0.40;;;19.10;99.90;;;;;;5025358;28;20029;-59
2022/10/16 10:36:04;;;;;;;0.82;0.45;;;19.00;99.90;;;;;;5001776;28;20167;-57
2022/10/16 10:38:57;;;;;;;2.55;0.75;;;19.00;99.90;;;;;;5030938;28;20358;-57
2022/10/16 10:41:34;;;;;;;1.75;0.40;;;18.90;99.90;;;;;;5026374;28;20072;-59
2022/10/16 10:44:38;;;;;;;2.33;0.40;;;18.90;99.90;;;;;;5029794;28;20202;-58
2022/10/16 10:47:31;;;;;;;1.35;0.30;;;19.00;99.90;;;;;;5029327;28;20818;-58
2022/10/16 10:50:35;;;;;;;2.38;0.40;;;19.10;99.90;;;;;;5033163;28;20048;-57
2022/10/16 10:53:36;;;;;;;1.23;0.35;;;19.30;99.90;;;;;;5027710;28;20017;-59
2022/10/16 10:56:22;;;;;;;4.13;1.02;;;19.50;99.90;;;;;;5026563;28;20456;-59
2022/10/16 10:59:19;;;;;;;2.35;0.47;;;19.90;99.90;;;;;;5025113;28;20121;-57
2022/10/16 11:01:54;;;;;;;2.63;0.55;;;20.00;99.90;;;;;;5027004;28;20112;-57
2022/10/16 11:04:45;;;;;;;2.67;0.40;;;19.90;99.90;;;;;;5026265;28;20768;-59
2022/10/16 11:07:31;;;;;;;0.45;0.35;;;19.80;99.90;;;;;;5028954;28;20036;-55
2022/10/16 11:10:07;;;;;;;2.47;0.43;;;19.80;99.90;;;;;;5030582;28;20033;-60
2022/10/16 11:13:10;;;;;;;0.70;0.30;;;19.90;99.90;;;;;;5029517;28;20034;-57
2022/10/16 11:15:39;;;;;;;2.05;0.40;;;20.00;99.90;;;;;;5027479;28;20030;-57
2022/10/16 11:18:11;;;;;;;3.00;0.50;;;20.00;99.90;;;;;;5026223;28;20037;-58
2022/10/16 11:20:49;;;;;;;0.40;0.40;;;20.00;99.90;;;;;;5027834;28;20407;-58
2022/10/16 11:23:44;;;;;;;1.08;0.40;;;20.10;99.90;;;;;;5025586;28;20032;-57
2022/10/16 11:26:17;;;;;;;1.23;0.50;;;20.40;99.90;;;;;;5029951;28;20040;-56
2022/10/16 11:28:48;;;;;;;1.80;0.40;;;20.60;99.90;;;;;;5030771;28;20480;-59
2022/10/16 11:31:22;;;;;;;2.05;0.25;;;20.80;99.90;;;;;;5032150;28;20040;-56
2022/10/16 11:33:58;;;;;;;3.50;0.60;;;20.90;99.90;;;;;;5026212;28;20033;-58
2022/10/16 11:36:35;;;;;;;0.80;0.50;;;20.80;99.90;;;;;;5029771;28;20034;-59
2022/10/16 11:39:00;;;;;;;6.65;0.38;;;21.00;99.90;;;;;;5043669;28;20037;-59
2022/10/16 11:42:12;;;;;;;0.80;0.43;;;21.30;99.90;;;;;;5025837;28;20029;-57
2022/10/16 11:45:08;;;;;;;0.75;0.28;;;21.60;99.90;;;;;;5020599;28;20069;-56
2022/10/16 11:47:40;;;;;;;2.40;0.40;;;21.60;99.90;;;;;;5033123;28;20071;-58
2022/10/16 11:50:29;;;;;;;3.63;1.20;;;21.70;99.90;;;;;;5049632;28;20038;-58
2022/10/16 11:52:59;;;;;;;6.15;0.50;;;21.60;99.90;;;;;;5032461;28;20297;-59
2022/10/16 11:55:32;;;;;;;1.75;0.40;;;21.90;99.90;;;;;;5031837;28;20025;-60
2022/10/16 11:58:16;;;;;;;0.20;0.20;;;22.20;99.90;;;;;;5033541;28;20021;-56
2022/10/16 12:01:21;;;;;;;1.80;0.47;;;22.20;99.90;;;;;;5030112;28;20030;-59
2022/10/16 12:04:14;;;;;;;1.25;0.43;;;21.80;99.90;;;;;;5028664;28;20380;-59
2022/10/16 12:06:46;;;;;;;1.42;0.30;;;21.80;99.90;;;;;;5022509;28;20511;-58
2022/10/16 12:09:24;;;;;;;1.90;0.43;;;21.80;99.90;;;;;;5033786;28;20029;-57
2022/10/16 12:11:49;;;;;;;1.63;0.50;;;21.70;99.90;;;;;;5030462;28;20029;-59
2022/10/16 12:14:15;;;;;;;1.52;0.35;;;21.50;99.90;;;;;;5028203;28;20080;-58
2022/10/16 12:16:58;;;;;;;1.35;0.30;;;21.40;99.90;;;;;;5032154;28;20026;-59
2022/10/16 12:19:26;;;;;;;5.43;0.82;;;21.40;99.90;;;;;;5030511;28;20499;-59
2022/10/16 12:21:55;;;;;;;0.28;0.28;;;21.00;99.90;;;;;;5029917;28;20383;-59
2022/10/16 12:24:40;;;;;;;0.88;0.30;;;20.80;99.90;;;;;;5033822;28;20037;-59
2022/10/16 12:27:30;;;;;;;0.55;0.20;;;20.80;99.90;;;;;;5031746;28;20029;-58
2022/10/16 12:30:03;;;;;;;1.73;0.43;;;20.90;99.90;;;;;;5028353;28;20030;-58
2022/10/16 12:32:32;;;;;;;2.58;0.40;;;20.60;99.90;;;;;;5020096;28;20033;-58
2022/10/16 12:34:59;;;;;;;2.15;0.50;;;20.70;99.90;;;;;;5030588;28;20029;-59
2022/10/16 12:37:28;;;;;;;1.00;0.30;;;20.80;99.90;;;;;;5029053;28;20097;-57
2022/10/16 12:39:55;;;;;;;2.10;0.50;;;20.90;99.90;;;;;;5030798;28;20450;-56
2022/10/16 12:42:27;;;;;;;0.93;0.30;;;20.80;99.90;;;;;;5026740;28;20032;-59
2022/10/16 12:44:54;;;;;;;2.50;0.40;;;20.90;99.90;;;;;;5031626;28;20025;-58
2022/10/16 12:47:35;;;;;;;3.47;0.50;;;21.10;99.90;;;;;;5038896;28;20053;-58
2022/10/16 12:50:00;;;;;;;4.55;0.50;;;21.40;99.90;;;;;;5027919;28;20040;-57
2022/10/16 12:52:38;;;;;;;2.17;0.40;;;21.70;99.90;;;;;;5030207;28;20470;-58
2022/10/16 12:55:05;;;;;;;2.92;0.25;;;22.10;99.90;;;;;;5032554;28;20484;-58
2022/10/16 12:58:11;;;;;;;1.13;0.30;;;22.40;99.90;;;;;;5031710;28;20083;-57
2022/10/16 13:00:45;;;;;;;1.20;0.43;;;22.80;99.90;;;;;;5024519;28;20029;-58
2022/10/16 13:03:13;;;;;;;6.30;0.40;;;22.90;99.90;;;;;;5032107;28;20484;-58